sensor_id;sensor_type;location;lat;lon;timestamp;pressure;altitude;pressure_sealevel;temperature;humidity
42067;BME280;27734;47.028;28.820;2023-08-20T00:00:31;100698.20;;;23.71;58.06
42067;BME280;27734;47.028;28.820;2023-08-20T00:03:23;100698.39;;;23.58;58.37
42067;BME280;27734;47.028;28.820;2023-08-20T00:05:55;100699.42;;;23.48;58.75
42067;BME280;27734;47.028;28.820;2023-08-20T00:08:27;100706.64;;;23.43;58.87
42067;BME280;27734;47.028;28.820;2023-08-20T00:10:58;100702.20;;;23.40;58.52
42067;BME280;27734;47.028;28.820;2023-08-20T00:13:29;100704.91;;;23.39;58.71
42067;BME280;27734;47.028;28.820;2023-08-20T00:16:02;100696.94;;;23.34;59.65
42067;BME280;27734;47.028;28.820;2023-08-20T00:18:34;100701.52;;;23.26;59.25
42067;BME280;27734;47.028;28.820;2023-08-20T00:21:08;100708.73;;;23.21;60.01
42067;BME280;27734;47.028;28.820;2023-08-20T00:23:38;100696.31;;;23.15;60.16
42067;BME280;27734;47.028;28.820;2023-08-20T00:26:10;100693.70;;;23.09;60.43
42067;BME280;27734;47.028;28.820;2023-08-20T00:28:42;100705.34;;;23.05;60.32
42067;BME280;27734;47.028;28.820;2023-08-20T00:31:13;100695.59;;;22.99;60.59
42067;BME280;27734;47.028;28.820;2023-08-20T00:33:46;100698.30;;;22.96;61.34
42067;BME280;27734;47.028;28.820;2023-08-20T00:36:17;100694.80;;;22.92;61.20
42067;BME280;27734;47.028;28.820;2023-08-20T00:38:48;100693.94;;;22.87;61.17
42067;BME280;27734;47.028;28.820;2023-08-20T00:41:21;100695.76;;;22.85;61.56
42067;BME280;27734;47.028;28.820;2023-08-20T00:43:52;100693.99;;;22.83;61.04
42067;BME280;27734;47.028;28.820;2023-08-20T00:46:23;100697.64;;;22.77;61.48
42067;BME280;27734;47.028;28.820;2023-08-20T00:48:55;100695.89;;;22.73;61.68
42067;BME280;27734;47.028;28.820;2023-08-20T00:51:27;100696.81;;;22.70;61.91
42067;BME280;27734;47.028;28.820;2023-08-20T00:53:59;100695.95;;;22.68;61.76
42067;BME280;27734;47.028;28.820;2023-08-20T00:56:31;100695.98;;;22.65;61.93
42067;BME280;27734;47.028;28.820;2023-08-20T00:59:04;100694.25;;;22.63;62.23
42067;BME280;27734;47.028;28.820;2023-08-20T01:01:35;100688.02;;;22.59;62.39
42067;BME280;27734;47.028;28.820;2023-08-20T01:04:08;100684.52;;;22.54;62.62
42067;BME280;27734;47.028;28.820;2023-08-20T01:06:46;100693.44;;;22.53;62.80
42067;BME280;27734;47.028;28.820;2023-08-20T01:09:31;100686.36;;;22.50;62.58
42067;BME280;27734;47.028;28.820;2023-08-20T01:12:09;100689.03;;;22.50;62.69
42067;BME280;27734;47.028;28.820;2023-08-20T01:14:41;100688.13;;;22.50;63.03
42067;BME280;27734;47.028;28.820;2023-08-20T01:17:12;100688.14;;;22.48;62.21
42067;BME280;27734;47.028;28.820;2023-08-20T01:19:45;100685.48;;;22.47;62.62
42067;BME280;27734;47.028;28.820;2023-08-20T01:22:38;100688.19;;;22.43;62.64
42067;BME280;27734;47.028;28.820;2023-08-20T01:25:22;100690.02;;;22.40;63.20
42067;BME280;27734;47.028;28.820;2023-08-20T01:28:03;100689.17;;;22.36;62.90
42067;BME280;27734;47.028;28.820;2023-08-20T01:30:38;100688.29;;;22.33;63.40
42067;BME280;27734;47.028;28.820;2023-08-20T01:33:09;100687.41;;;22.29;63.16
42067;BME280;27734;47.028;28.820;2023-08-20T01:35:42;100687.45;;;22.24;63.92
42067;BME280;27734;47.028;28.820;2023-08-20T01:38:20;100691.97;;;22.19;64.06
42067;BME280;27734;47.028;28.820;2023-08-20T01:40:51;100689.33;;;22.15;63.67
42067;BME280;27734;47.028;28.820;2023-08-20T01:43:23;100688.44;;;22.13;64.75
42067;BME280;27734;47.028;28.820;2023-08-20T01:45:54;100675.14;;;22.10;63.82
42067;BME280;27734;47.028;28.820;2023-08-20T01:48:25;100676.91;;;22.07;64.37
42067;BME280;27734;47.028;28.820;2023-08-20T01:50:57;100677.87;;;22.02;64.39
42067;BME280;27734;47.028;28.820;2023-08-20T01:53:28;100686.80;;;21.98;64.78
42067;BME280;27734;47.028;28.820;2023-08-20T01:55:59;100702.83;;;21.98;65.18
42067;BME280;27734;47.028;28.820;2023-08-20T01:58:30;100692.97;;;22.04;64.29
42067;BME280;27734;47.028;28.820;2023-08-20T02:01:02;100692.08;;;22.07;64.15
42067;BME280;27734;47.028;28.820;2023-08-20T02:03:36;100689.41;;;22.07;64.63
42067;BME280;27734;47.028;28.820;2023-08-20T02:06:07;100684.97;;;22.03;65.32
42067;BME280;27734;47.028;28.820;2023-08-20T02:08:39;100692.13;;;22.01;64.43
42067;BME280;27734;47.028;28.820;2023-08-20T02:11:10;100698.37;;;21.98;65.37
42067;BME280;27734;47.028;28.820;2023-08-20T02:13:42;100698.41;;;21.94;65.06
42067;BME280;27734;47.028;28.820;2023-08-20T02:16:13;100685.09;;;21.87;65.94
42067;BME280;27734;47.028;28.820;2023-08-20T02:18:46;100697.61;;;21.82;66.52
42067;BME280;27734;47.028;28.820;2023-08-20T02:21:18;100700.30;;;21.79;66.21
42067;BME280;27734;47.028;28.820;2023-08-20T02:23:50;100702.09;;;21.79;65.84
42067;BME280;27734;47.028;28.820;2023-08-20T02:26:21;100705.64;;;21.79;65.22
42067;BME280;27734;47.028;28.820;2023-08-20T02:28:53;100708.33;;;21.78;66.44
42067;BME280;27734;47.028;28.820;2023-08-20T02:31:24;100711.87;;;21.77;66.02
42067;BME280;27734;47.028;28.820;2023-08-20T02:33:55;100710.12;;;21.77;65.42
42067;BME280;27734;47.028;28.820;2023-08-20T02:36:27;100712.78;;;21.79;65.64
42067;BME280;27734;47.028;28.820;2023-08-20T02:38:59;100718.11;;;21.80;66.08
42067;BME280;27734;47.028;28.820;2023-08-20T02:41:31;100718.10;;;21.82;65.38
42067;BME280;27734;47.028;28.820;2023-08-20T02:44:03;100721.66;;;21.81;66.47
42067;BME280;27734;47.028;28.820;2023-08-20T02:46:34;100717.22;;;21.78;65.99
42067;BME280;27734;47.028;28.820;2023-08-20T02:49:08;100719.02;;;21.76;66.49
42067;BME280;27734;47.028;28.820;2023-08-20T02:51:40;100718.16;;;21.74;66.01
42067;BME280;27734;47.028;28.820;2023-08-20T02:54:12;100719.94;;;21.70;65.99
42067;BME280;27734;47.028;28.820;2023-08-20T02:56:44;100719.95;;;21.67;67.01
42067;BME280;27734;47.028;28.820;2023-08-20T02:59:15;100725.31;;;21.64;66.83
42067;BME280;27734;47.028;28.820;2023-08-20T03:01:46;100725.33;;;21.61;67.28
42067;BME280;27734;47.028;28.820;2023-08-20T03:04:18;100720.00;;;21.60;67.36
42067;BME280;27734;47.028;28.820;2023-08-20T03:06:49;100707.61;;;21.52;67.52
42067;BME280;27734;47.028;28.820;2023-08-20T03:09:21;100707.62;;;21.51;67.14
42067;BME280;27734;47.028;28.820;2023-08-20T03:11:52;100712.08;;;21.50;67.30
42067;BME280;27734;47.028;28.820;2023-08-20T03:14:23;100710.30;;;21.49;67.74
42067;BME280;27734;47.028;28.820;2023-08-20T03:16:55;100716.49;;;21.47;67.15
42067;BME280;27734;47.028;28.820;2023-08-20T03:19:26;100711.17;;;21.44;67.47
42067;BME280;27734;47.028;28.820;2023-08-20T03:21:57;100712.98;;;21.40;67.53
42067;BME280;27734;47.028;28.820;2023-08-20T03:24:29;100709.45;;;21.36;67.80
42067;BME280;27734;47.028;28.820;2023-08-20T03:27:00;100709.47;;;21.33;67.91
42067;BME280;27734;47.028;28.820;2023-08-20T03:29:32;100707.67;;;21.34;67.17
42067;BME280;27734;47.028;28.820;2023-08-20T03:32:05;100708.56;;;21.33;66.88
42067;BME280;27734;47.028;28.820;2023-08-20T03:34:36;100701.47;;;21.32;67.44
42067;BME280;27734;47.028;28.820;2023-08-20T03:37:08;100697.88;;;21.33;67.68
42067;BME280;27734;47.028;28.820;2023-08-20T03:39:39;100699.67;;;21.34;67.41
42067;BME280;27734;47.028;28.820;2023-08-20T03:42:11;100699.66;;;21.35;67.88
42067;BME280;27734;47.028;28.820;2023-08-20T03:44:42;100702.32;;;21.37;67.34
42067;BME280;27734;47.028;28.820;2023-08-20T03:47:13;100702.31;;;21.39;67.06
42067;BME280;27734;47.028;28.820;2023-08-20T03:49:45;100698.77;;;21.40;67.42
42067;BME280;27734;47.028;28.820;2023-08-20T03:52:17;100710.30;;;21.42;67.99
42067;BME280;27734;47.028;28.820;2023-08-20T03:54:49;100708.48;;;21.48;66.66
42067;BME280;27734;47.028;28.820;2023-08-20T03:57:20;100710.28;;;21.52;67.64
42067;BME280;27734;47.028;28.820;2023-08-20T03:59:52;100708.48;;;21.53;67.96
42067;BME280;27734;47.028;28.820;2023-08-20T04:02:23;100697.81;;;21.51;67.31
42067;BME280;27734;47.028;28.820;2023-08-20T04:04:54;100712.94;;;21.48;68.04
42067;BME280;27734;47.028;28.820;2023-08-20T04:07:29;100707.63;;;21.45;67.95
42067;BME280;27734;47.028;28.820;2023-08-20T04:10:00;100711.17;;;21.44;67.87
42067;BME280;27734;47.028;28.820;2023-08-20T04:12:31;100710.28;;;21.46;68.61
42067;BME280;27734;47.028;28.820;2023-08-20T04:15:03;100702.27;;;21.46;67.84
42067;BME280;27734;47.028;28.820;2023-08-20T04:17:36;100702.28;;;21.49;67.96
42067;BME280;27734;47.028;28.820;2023-08-20T04:20:09;100698.72;;;21.52;68.20
42067;BME280;27734;47.028;28.820;2023-08-20T04:22:41;100703.14;;;21.54;68.61
42067;BME280;27734;47.028;28.820;2023-08-20T04:25:13;100705.78;;;21.59;68.38
42067;BME280;27734;47.028;28.820;2023-08-20T04:27:44;100701.30;;;21.63;68.21
42067;BME280;27734;47.028;28.820;2023-08-20T04:30:16;100699.50;;;21.68;68.55
42067;BME280;27734;47.028;28.820;2023-08-20T04:32:47;100695.89;;;21.72;68.37
42067;BME280;27734;47.028;28.820;2023-08-20T04:35:19;100693.20;;;21.73;68.61
42067;BME280;27734;47.028;28.820;2023-08-20T04:37:51;100701.19;;;21.78;68.59
42067;BME280;27734;47.028;28.820;2023-08-20T04:40:22;100695.83;;;21.81;68.19
42067;BME280;27734;47.028;28.820;2023-08-20T04:42:54;100700.26;;;21.85;68.35
42067;BME280;27734;47.028;28.820;2023-08-20T04:45:26;100697.54;;;21.92;68.35
42067;BME280;27734;47.028;28.820;2023-08-20T04:47:57;100709.96;;;21.99;67.86
42067;BME280;27734;47.028;28.820;2023-08-20T04:50:29;100707.24;;;22.05;68.25
42067;BME280;27734;47.028;28.820;2023-08-20T04:53:01;100704.47;;;22.13;68.03
42067;BME280;27734;47.028;28.820;2023-08-20T04:55:32;100699.97;;;22.21;68.15
42067;BME280;27734;47.028;28.820;2023-08-20T04:58:05;100705.27;;;22.30;67.54
42067;BME280;27734;47.028;28.820;2023-08-20T05:00:37;100709.61;;;22.39;67.30
42067;BME280;27734;47.028;28.820;2023-08-20T05:03:13;100706.88;;;22.45;67.40
42067;BME280;27734;47.028;28.820;2023-08-20T05:05:51;100708.63;;;22.51;67.83
42067;BME280;27734;47.028;28.820;2023-08-20T05:08:22;100712.11;;;22.57;67.78
42067;BME280;27734;47.028;28.820;2023-08-20T05:10:54;100718.30;;;22.64;67.11
42067;BME280;27734;47.028;28.820;2023-08-20T05:13:25;100713.77;;;22.71;67.26
42067;BME280;27734;47.028;28.820;2023-08-20T05:15:58;100718.13;;;22.78;67.14
42067;BME280;27734;47.028;28.820;2023-08-20T05:18:29;100716.30;;;22.83;67.28
42067;BME280;27734;47.028;28.820;2023-08-20T05:21:01;100721.55;;;22.92;67.29
42067;BME280;27734;47.028;28.820;2023-08-20T05:23:32;100722.33;;;23.01;66.80
42067;BME280;27734;47.028;28.820;2023-08-20T05:26:06;100724.05;;;23.09;66.88
42067;BME280;27734;47.028;28.820;2023-08-20T05:28:38;100719.47;;;23.19;66.90
42067;BME280;27734;47.028;28.820;2023-08-20T05:31:09;100730.07;;;23.27;66.67
42067;BME280;27734;47.028;28.820;2023-08-20T05:33:42;100723.71;;;23.34;66.15
42067;BME280;27734;47.028;28.820;2023-08-20T05:36:13;100726.28;;;23.42;66.42
42067;BME280;27734;47.028;28.820;2023-08-20T05:38:45;100722.63;;;23.49;66.21
42067;BME280;27734;47.028;28.820;2023-08-20T05:41:17;100729.64;;;23.59;65.87
42067;BME280;27734;47.028;28.820;2023-08-20T05:43:51;100733.95;;;23.68;65.90
42067;BME280;27734;47.028;28.820;2023-08-20T05:46:22;100727.58;;;23.77;65.53
42067;BME280;27734;47.028;28.820;2023-08-20T05:48:54;100730.16;;;23.86;65.22
42067;BME280;27734;47.028;28.820;2023-08-20T05:51:25;100730.02;;;23.95;65.09
42067;BME280;27734;47.028;28.820;2023-08-20T05:53:56;100728.08;;;24.03;64.74
42067;BME280;27734;47.028;28.820;2023-08-20T05:56:31;100730.59;;;24.14;64.72
42067;BME280;27734;47.028;28.820;2023-08-20T05:59:02;100723.23;;;24.26;64.55
42067;BME280;27734;47.028;28.820;2023-08-20T06:01:34;100723.92;;;24.37;64.42
42067;BME280;27734;47.028;28.820;2023-08-20T06:04:06;100731.81;;;24.46;64.41
42067;BME280;27734;47.028;28.820;2023-08-20T06:06:38;100728.95;;;24.55;64.23
42067;BME280;27734;47.028;28.820;2023-08-20T06:09:10;100727.05;;;24.65;63.85
42067;BME280;27734;47.028;28.820;2023-08-20T06:11:42;100729.55;;;24.74;63.91
42067;BME280;27734;47.028;28.820;2023-08-20T06:14:14;100722.17;;;24.86;63.95
42067;BME280;27734;47.028;28.820;2023-08-20T06:16:45;100715.68;;;24.96;63.49
42067;BME280;27734;47.028;28.820;2023-08-20T06:19:17;100714.59;;;25.06;63.50
42067;BME280;27734;47.028;28.820;2023-08-20T06:21:48;100718.86;;;25.17;63.37
42067;BME280;27734;47.028;28.820;2023-08-20T06:24:20;100716.81;;;25.28;62.64
42067;BME280;27734;47.028;28.820;2023-08-20T06:26:52;100719.34;;;25.37;62.76
42067;BME280;27734;47.028;28.820;2023-08-20T06:29:23;100719.97;;;25.48;62.89
42067;BME280;27734;47.028;28.820;2023-08-20T06:31:55;100722.41;;;25.59;62.42
42067;BME280;27734;47.028;28.820;2023-08-20T06:34:26;100721.26;;;25.71;62.13
42067;BME280;27734;47.028;28.820;2023-08-20T06:36:58;100722.78;;;25.81;62.65
42067;BME280;27734;47.028;28.820;2023-08-20T06:39:30;100716.28;;;25.92;62.39
42067;BME280;27734;47.028;28.820;2023-08-20T06:42:02;100715.11;;;26.04;62.06
42067;BME280;27734;47.028;28.820;2023-08-20T06:44:34;100717.53;;;26.14;62.14
42067;BME280;27734;47.028;28.820;2023-08-20T06:47:06;100720.77;;;26.29;61.66
42067;BME280;27734;47.028;28.820;2023-08-20T06:49:38;100718.59;;;26.43;60.88
42067;BME280;27734;47.028;28.820;2023-08-20T06:52:10;100717.31;;;26.57;60.60
42067;BME280;27734;47.028;28.820;2023-08-20T06:54:41;100717.88;;;26.71;60.67
42067;BME280;27734;47.028;28.820;2023-08-20T06:57:14;100713.89;;;26.84;59.90
42067;BME280;27734;47.028;28.820;2023-08-20T06:59:50;100714.46;;;26.96;60.44
42067;BME280;27734;47.028;28.820;2023-08-20T07:02:24;100720.53;;;27.04;60.02
42067;BME280;27734;47.028;28.820;2023-08-20T07:04:56;100711.95;;;27.21;59.77
42067;BME280;27734;47.028;28.820;2023-08-20T07:07:28;100722.17;;;27.39;59.38
42067;BME280;27734;47.028;28.820;2023-08-20T07:09:59;100716.17;;;27.59;58.49
42067;BME280;27734;47.028;28.820;2023-08-20T07:12:30;100713.08;;;27.72;58.49
42067;BME280;27734;47.028;28.820;2023-08-20T07:15:02;100721.53;;;27.89;58.50
42067;BME280;27734;47.028;28.820;2023-08-20T07:17:34;100713.69;;;28.10;58.37
42067;BME280;27734;47.028;28.820;2023-08-20T07:20:07;100712.95;;;28.31;58.01
42067;BME280;27734;47.028;28.820;2023-08-20T07:22:42;100714.27;;;28.45;57.71
42067;BME280;27734;47.028;28.820;2023-08-20T07:25:13;100705.49;;;28.65;56.88
42067;BME280;27734;47.028;28.820;2023-08-20T07:27:44;100698.77;;;28.77;56.55
42067;BME280;27734;47.028;28.820;2023-08-20T07:30:16;100703.66;;;28.91;56.29
42067;BME280;27734;47.028;28.820;2023-08-20T07:32:47;100707.70;;;29.02;56.12
42067;BME280;27734;47.028;28.820;2023-08-20T07:35:19;100702.77;;;29.14;55.73
42067;BME280;27734;47.028;28.820;2023-08-20T07:37:50;100701.03;;;29.36;54.97
42067;BME280;27734;47.028;28.820;2023-08-20T07:40:22;100702.77;;;29.61;54.22
42067;BME280;27734;47.028;28.820;2023-08-20T07:42:53;100697.66;;;29.75;54.06
42067;BME280;27734;47.028;28.820;2023-08-20T07:45:24;100701.66;;;29.89;54.18
42067;BME280;27734;47.028;28.820;2023-08-20T07:47:56;100702.50;;;30.11;53.75
42067;BME280;27734;47.028;28.820;2023-08-20T07:50:30;100688.92;;;30.34;53.57
42067;BME280;27734;47.028;28.820;2023-08-20T07:53:01;100689.43;;;30.64;52.42
42067;BME280;27734;47.028;28.820;2023-08-20T07:55:33;100689.61;;;30.80;51.97
42067;BME280;27734;47.028;28.820;2023-08-20T07:58:04;100677.20;;;30.95;51.02
42067;BME280;27734;47.028;28.820;2023-08-20T08:00:36;100681.53;;;31.18;50.79
42067;BME280;27734;47.028;28.820;2023-08-20T08:03:07;100679.34;;;31.45;48.54
42067;BME280;27734;47.028;28.820;2023-08-20T08:05:39;100684.05;;;31.61;48.38
42067;BME280;27734;47.028;28.820;2023-08-20T08:08:11;100686.31;;;31.70;47.32
42067;BME280;27734;47.028;28.820;2023-08-20T08:10:42;100680.66;;;31.75;47.75
42067;BME280;27734;47.028;28.820;2023-08-20T08:13:15;100679.83;;;31.72;47.47
42067;BME280;27734;47.028;28.820;2023-08-20T08:15:48;100679.75;;;31.74;47.46
42067;BME280;27734;47.028;28.820;2023-08-20T08:18:19;100680.91;;;31.87;47.44
42067;BME280;27734;47.028;28.820;2023-08-20T08:20:51;100673.91;;;32.01;46.77
42067;BME280;27734;47.028;28.820;2023-08-20T08:23:23;100669.62;;;32.14;46.34
42067;BME280;27734;47.028;28.820;2023-08-20T08:25:54;100674.26;;;32.30;46.00
42067;BME280;27734;47.028;28.820;2023-08-20T08:28:26;100668.59;;;32.34;45.73
42067;BME280;27734;47.028;28.820;2023-08-20T08:30:57;100661.64;;;32.46;45.41
42067;BME280;27734;47.028;28.820;2023-08-20T08:33:29;100661.77;;;32.60;44.31
42067;BME280;27734;47.028;28.820;2023-08-20T08:36:00;100665.22;;;32.64;44.44
42067;BME280;27734;47.028;28.820;2023-08-20T08:38:31;100658.42;;;32.73;43.13
42067;BME280;27734;47.028;28.820;2023-08-20T08:41:04;100663.60;;;32.77;41.51
42067;BME280;27734;47.028;28.820;2023-08-20T08:43:41;100650.55;;;32.84;42.31
42067;BME280;27734;47.028;28.820;2023-08-20T08:46:16;100646.55;;;32.91;41.77
42067;BME280;27734;47.028;28.820;2023-08-20T08:48:47;100652.59;;;32.96;41.85
42067;BME280;27734;47.028;28.820;2023-08-20T08:51:33;100647.67;;;33.03;41.63
42067;BME280;27734;47.028;28.820;2023-08-20T08:54:03;100645.52;;;33.10;42.09
42067;BME280;27734;47.028;28.820;2023-08-20T08:56:35;100645.08;;;33.18;41.17
42067;BME280;27734;47.028;28.820;2023-08-20T08:59:06;100643.61;;;33.28;41.11
42067;BME280;27734;47.028;28.820;2023-08-20T09:01:39;100642.81;;;33.42;41.12
42067;BME280;27734;47.028;28.820;2023-08-20T09:04:12;100642.64;;;33.45;39.58
42067;BME280;27734;47.028;28.820;2023-08-20T09:06:50;100642.88;;;33.56;39.98
42067;BME280;27734;47.028;28.820;2023-08-20T09:09:22;100642.80;;;33.58;39.20
42067;BME280;27734;47.028;28.820;2023-08-20T09:11:54;100637.70;;;33.67;39.09
42067;BME280;27734;47.028;28.820;2023-08-20T09:14:29;100635.94;;;33.82;38.86
42067;BME280;27734;47.028;28.820;2023-08-20T09:17:01;100634.16;;;33.97;38.66
42067;BME280;27734;47.028;28.820;2023-08-20T09:19:37;100633.69;;;34.05;37.73
42067;BME280;27734;47.028;28.820;2023-08-20T09:22:09;100620.97;;;34.20;37.76
42067;BME280;27734;47.028;28.820;2023-08-20T09:24:44;100622.97;;;34.32;37.92
42067;BME280;27734;47.028;28.820;2023-08-20T09:27:15;100622.10;;;34.32;36.77
42067;BME280;27734;47.028;28.820;2023-08-20T09:29:48;100626.84;;;34.28;36.86
42067;BME280;27734;47.028;28.820;2023-08-20T09:32:21;100619.09;;;34.36;36.65
42067;BME280;27734;47.028;28.820;2023-08-20T09:34:52;100622.97;;;34.47;37.40
42067;BME280;27734;47.028;28.820;2023-08-20T09:37:24;100623.58;;;34.52;36.74
42067;BME280;27734;47.028;28.820;2023-08-20T09:39:55;100624.55;;;34.51;36.25
42067;BME280;27734;47.028;28.820;2023-08-20T09:42:29;100619.86;;;34.53;36.12
42067;BME280;27734;47.028;28.820;2023-08-20T09:45:04;100615.12;;;34.56;35.85
42067;BME280;27734;47.028;28.820;2023-08-20T09:47:37;100617.55;;;34.61;35.93
42067;BME280;27734;47.028;28.820;2023-08-20T09:50:11;100609.09;;;34.66;35.49
42067;BME280;27734;47.028;28.820;2023-08-20T09:52:48;100615.70;;;34.62;35.10
42067;BME280;27734;47.028;28.820;2023-08-20T09:55:22;100608.88;;;34.54;34.66
42067;BME280;27734;47.028;28.820;2023-08-20T09:57:59;100621.62;;;34.54;34.24
42067;BME280;27734;47.028;28.820;2023-08-20T10:00:33;100611.31;;;34.45;33.90
42067;BME280;27734;47.028;28.820;2023-08-20T10:03:05;100610.73;;;34.39;33.32
42067;BME280;27734;47.028;28.820;2023-08-20T10:05:37;100602.66;;;34.52;33.60
42067;BME280;27734;47.028;28.820;2023-08-20T10:08:08;100606.17;;;34.69;32.79
42067;BME280;27734;47.028;28.820;2023-08-20T10:10:40;100595.95;;;34.87;33.20
42067;BME280;27734;47.028;28.820;2023-08-20T10:13:11;100600.00;;;35.08;33.38
42067;BME280;27734;47.028;28.820;2023-08-20T10:15:43;100595.21;;;35.12;32.26
42067;BME280;27734;47.028;28.820;2023-08-20T10:18:16;100600.86;;;35.09;31.74
42067;BME280;27734;47.028;28.820;2023-08-20T10:20:51;100607.02;;;35.13;32.35
42067;BME280;27734;47.028;28.820;2023-08-20T10:23:21;100607.12;;;35.11;30.99
42067;BME280;27734;47.028;28.820;2023-08-20T10:25:54;100595.80;;;35.17;31.71
42067;BME280;27734;47.028;28.820;2023-08-20T10:28:37;100594.13;;;35.29;31.52
42067;BME280;27734;47.028;28.820;2023-08-20T10:31:10;100594.27;;;35.40;31.57
42067;BME280;27734;47.028;28.820;2023-08-20T10:33:50;100596.77;;;35.58;31.59
42067;BME280;27734;47.028;28.820;2023-08-20T10:36:26;100592.88;;;35.75;31.75
42067;BME280;27734;47.028;28.820;2023-08-20T10:38:58;100586.73;;;35.71;31.24
42067;BME280;27734;47.028;28.820;2023-08-20T10:41:35;100585.12;;;35.69;31.12
42067;BME280;27734;47.028;28.820;2023-08-20T10:44:07;100579.77;;;35.67;31.34
42067;BME280;27734;47.028;28.820;2023-08-20T10:46:50;100579.77;;;35.67;30.62
42067;BME280;27734;47.028;28.820;2023-08-20T10:49:22;100581.28;;;35.71;30.80
42067;BME280;27734;47.028;28.820;2023-08-20T10:51:53;100576.45;;;35.62;30.24
42067;BME280;27734;47.028;28.820;2023-08-20T10:54:26;100578.53;;;35.58;30.06
42067;BME280;27734;47.028;28.820;2023-08-20T10:56:59;100577.97;;;35.53;29.57
42067;BME280;27734;47.028;28.820;2023-08-20T10:59:32;100578.73;;;35.55;30.08
42067;BME280;27734;47.028;28.820;2023-08-20T11:02:02;100575.80;;;35.58;30.07
42067;BME280;27734;47.028;28.820;2023-08-20T11:04:36;100581.05;;;35.61;30.31
42067;BME280;27734;47.028;28.820;2023-08-20T11:07:09;100578.77;;;35.68;30.26
42067;BME280;27734;47.028;28.820;2023-08-20T11:09:41;100578.00;;;35.66;29.86
42067;BME280;27734;47.028;28.820;2023-08-20T11:12:15;100577.14;;;35.66;29.94
42067;BME280;27734;47.028;28.820;2023-08-20T11:14:47;100574.72;;;35.61;30.00
42067;BME280;27734;47.028;28.820;2023-08-20T11:17:18;100567.30;;;35.63;29.61
42067;BME280;27734;47.028;28.820;2023-08-20T11:19:50;100563.94;;;35.72;29.81
42067;BME280;27734;47.028;28.820;2023-08-20T11:22:22;100559.06;;;35.77;29.65
42067;BME280;27734;47.028;28.820;2023-08-20T11:24:53;100546.74;;;35.85;29.35
42067;BME280;27734;47.028;28.820;2023-08-20T11:27:29;100549.37;;;35.99;29.32
42067;BME280;27734;47.028;28.820;2023-08-20T11:30:00;100547.61;;;35.98;29.23
42067;BME280;27734;47.028;28.820;2023-08-20T11:32:34;100546.31;;;35.91;29.35
42067;BME280;27734;47.028;28.820;2023-08-20T11:35:07;100546.85;;;35.83;29.17
42067;BME280;27734;47.028;28.820;2023-08-20T11:37:37;100544.08;;;35.70;28.83
42067;BME280;27734;47.028;28.820;2023-08-20T11:40:10;100545.47;;;35.63;29.42
42067;BME280;27734;47.028;28.820;2023-08-20T11:42:42;100545.76;;;35.45;29.13
42067;BME280;27734;47.028;28.820;2023-08-20T11:45:14;100543.55;;;35.38;28.94
42067;BME280;27734;47.028;28.820;2023-08-20T11:47:45;100537.61;;;35.31;29.05
42067;BME280;27734;47.028;28.820;2023-08-20T11:50:22;100538.54;;;35.17;28.71
42067;BME280;27734;47.028;28.820;2023-08-20T11:52:54;100545.02;;;35.02;29.00
42067;BME280;27734;47.028;28.820;2023-08-20T11:55:26;100539.47;;;34.89;28.74
42067;BME280;27734;47.028;28.820;2023-08-20T11:58:00;100535.78;;;34.90;28.34
42067;BME280;27734;47.028;28.820;2023-08-20T12:00:32;100530.28;;;35.04;28.47
42067;BME280;27734;47.028;28.820;2023-08-20T12:03:04;100526.94;;;35.14;28.33
42067;BME280;27734;47.028;28.820;2023-08-20T12:05:36;100525.56;;;35.21;28.52
42067;BME280;27734;47.028;28.820;2023-08-20T12:08:07;100516.38;;;35.36;28.46
42067;BME280;27734;47.028;28.820;2023-08-20T12:10:43;100513.02;;;35.45;28.00
42067;BME280;27734;47.028;28.820;2023-08-20T12:13:14;100508.11;;;35.51;27.91
42067;BME280;27734;47.028;28.820;2023-08-20T12:15:46;100505.17;;;35.54;28.06
42067;BME280;27734;47.028;28.820;2023-08-20T12:18:18;100506.14;;;35.53;28.13
42067;BME280;27734;47.028;28.820;2023-08-20T12:20:50;100506.03;;;35.54;28.08
42067;BME280;27734;47.028;28.820;2023-08-20T12:23:22;100504.20;;;35.55;27.66
42067;BME280;27734;47.028;28.820;2023-08-20T12:25:54;100492.28;;;35.56;27.94
42067;BME280;27734;47.028;28.820;2023-08-20T12:28:25;100491.63;;;35.52;27.70
42067;BME280;27734;47.028;28.820;2023-08-20T12:30:57;100496.23;;;35.52;27.40
42067;BME280;27734;47.028;28.820;2023-08-20T12:33:28;100495.91;;;35.56;27.49
42067;BME280;27734;47.028;28.820;2023-08-20T12:35:59;100493.50;;;35.52;27.41
42067;BME280;27734;47.028;28.820;2023-08-20T12:38:32;100492.92;;;35.46;27.35
42067;BME280;27734;47.028;28.820;2023-08-20T12:41:04;100500.45;;;35.43;27.43
42067;BME280;27734;47.028;28.820;2023-08-20T12:43:36;100481.36;;;35.43;27.36
42067;BME280;27734;47.028;28.820;2023-08-20T12:46:07;100484.63;;;35.48;27.37
42067;BME280;27734;47.028;28.820;2023-08-20T12:48:38;100476.23;;;35.51;27.35
42067;BME280;27734;47.028;28.820;2023-08-20T12:51:10;100475.70;;;35.59;27.30
42067;BME280;27734;47.028;28.820;2023-08-20T12:53:47;100478.22;;;35.62;27.50
42067;BME280;27734;47.028;28.820;2023-08-20T12:56:22;100474.84;;;35.58;27.15
42067;BME280;27734;47.028;28.820;2023-08-20T12:58:53;100474.30;;;35.53;27.39
42067;BME280;27734;47.028;28.820;2023-08-20T13:01:24;100468.73;;;35.55;27.44
42067;BME280;27734;47.028;28.820;2023-08-20T13:03:57;100467.73;;;35.56;27.26
42067;BME280;27734;47.028;28.820;2023-08-20T13:06:37;100464.68;;;35.60;27.27